createdAt,value
2018-05-08T00:02:24.500Z,65.20
2018-05-08T00:04:50.417Z,64.90
2018-05-08T00:07:16.399Z,64.20
2018-05-08T00:09:42.349Z,64.20
2018-05-08T00:12:08.393Z,64.70
2018-05-08T00:14:34.347Z,65.10
2018-05-08T00:17:00.366Z,65.60
2018-05-08T00:19:26.459Z,65.40
2018-05-08T00:21:52.443Z,64.90
2018-05-08T00:41:02.760Z,64.60
2018-05-08T00:43:28.711Z,65.60
2018-05-08T00:45:54.704Z,65.40
2018-05-08T00:48:21.548Z,65.20
2018-05-08T00:50:47.548Z,64.80
2018-05-08T00:53:13.609Z,65.00
2018-05-08T00:55:39.566Z,65.30
2018-05-08T00:58:05.530Z,65.30
2018-05-08T01:00:31.511Z,65.30
2018-05-08T01:02:57.444Z,65.20
2018-05-08T01:05:23.434Z,65.80
2018-05-08T01:07:49.404Z,66.20
2018-05-08T01:10:15.354Z,66.20
2018-05-08T01:12:41.309Z,65.80
2018-05-08T01:15:07.266Z,66.20
2018-05-08T01:17:33.222Z,66.50
2018-05-08T01:19:59.292Z,67.30
2018-05-08T01:22:25.293Z,66.80
2018-05-08T01:24:51.238Z,67.10
2018-05-08T01:27:17.183Z,67.40
2018-05-08T01:29:43.160Z,68.00
2018-05-08T01:32:09.160Z,68.60
2018-05-08T01:34:35.100Z,68.40
2018-05-08T01:37:01.151Z,68.00
2018-05-08T01:39:27.114Z,67.20
2018-05-08T01:41:53.144Z,67.10
2018-05-08T01:44:19.064Z,67.50
2018-05-08T01:46:45.115Z,68.00
2018-05-08T01:49:11.243Z,68.20
2018-05-08T01:51:37.280Z,68.40
2018-05-08T01:54:03.317Z,68.50
2018-05-08T01:56:29.321Z,69.30
2018-05-08T01:58:55.313Z,69.10
2018-05-08T02:01:21.320Z,69.10
2018-05-08T02:03:47.343Z,69.50
2018-05-08T02:06:13.356Z,69.60
2018-05-08T02:08:39.414Z,68.90
2018-05-08T02:11:05.454Z,69.00
2018-05-08T02:13:31.467Z,69.50
2018-05-08T02:15:57.463Z,69.80
2018-05-08T02:18:23.799Z,70.10
2018-05-08T02:20:49.770Z,70.00
2018-05-08T02:23:15.745Z,69.30
2018-05-08T02:25:41.894Z,68.80
2018-05-08T02:28:07.836Z,68.80
2018-05-08T02:30:33.856Z,69.00
2018-05-08T02:32:59.865Z,68.80
2018-05-08T02:35:26.438Z,68.10
2018-05-08T02:37:52.446Z,67.80
2018-05-08T02:40:18.433Z,66.90
2018-05-08T02:42:44.422Z,67.00
2018-05-08T02:45:10.434Z,66.60
2018-05-08T02:47:36.420Z,66.50
2018-05-08T02:50:02.579Z,66.80
2018-05-08T02:52:28.577Z,67.10
2018-05-08T02:54:54.511Z,67.80
2018-05-08T02:57:20.478Z,68.90
2018-05-08T02:59:46.511Z,69.50
2018-05-08T03:02:12.501Z,70.40
2018-05-08T03:04:38.452Z,70.90
2018-05-08T03:07:04.394Z,71.40
2018-05-08T03:09:30.599Z,71.90
2018-05-08T03:11:56.588Z,72.10
2018-05-08T03:14:22.542Z,72.40
2018-05-08T03:16:48.493Z,72.70
2018-05-08T03:19:14.502Z,73.30
2018-05-08T03:21:40.574Z,73.60
2018-05-08T03:24:06.556Z,74.30
2018-05-08T03:26:32.530Z,75.00
2018-05-08T03:28:58.558Z,75.60
2018-05-08T03:31:24.500Z,76.30
2018-05-08T03:33:50.465Z,76.40
2018-05-08T03:36:16.449Z,76.60
2018-05-08T03:38:42.440Z,76.20
2018-05-08T03:41:08.361Z,76.70
2018-05-08T03:43:34.335Z,77.30
2018-05-08T03:46:00.302Z,77.90
2018-05-08T03:48:26.271Z,78.30
2018-05-08T03:50:52.230Z,78.50
2018-05-08T03:53:18.184Z,78.20
2018-05-08T03:55:44.145Z,78.70
2018-05-08T03:58:10.134Z,79.00
2018-05-08T04:00:48.317Z,79.50
2018-05-08T04:03:27.440Z,79.40
2018-05-08T04:06:16.270Z,78.80
2018-05-08T04:08:42.326Z,78.50
2018-05-08T04:11:08.291Z,79.00
2018-05-08T04:13:34.235Z,79.70
2018-05-08T04:16:00.518Z,80.20
2018-05-08T04:18:26.725Z,80.70
2018-05-08T04:20:52.830Z,81.40
2018-05-08T04:23:18.806Z,81.80
2018-05-08T04:25:44.760Z,81.80
2018-05-08T04:28:10.745Z,81.90
2018-05-08T04:30:36.943Z,82.40
2018-05-08T04:33:03.030Z,82.70
2018-05-08T04:35:29.034Z,83.20
2018-05-08T04:37:55.033Z,82.90
2018-05-08T04:40:21.045Z,83.60
2018-05-08T04:42:47.594Z,83.40
2018-05-08T04:45:13.597Z,82.80
2018-05-08T04:47:39.568Z,84.00
2018-05-08T04:50:05.570Z,85.50
2018-05-08T04:52:31.570Z,86.20
2018-05-08T04:54:57.679Z,87.00
2018-05-08T04:57:24.364Z,88.00
2018-05-08T04:59:50.441Z,89.40
2018-05-08T05:02:16.475Z,90.20
2018-05-08T05:04:44.254Z,90.40
2018-05-08T05:07:10.280Z,90.70
2018-05-08T05:09:36.240Z,91.00
2018-05-08T05:12:02.332Z,91.00
2018-05-08T05:14:28.448Z,91.40
2018-05-08T05:16:54.574Z,91.30
2018-05-08T05:19:20.551Z,91.30
2018-05-08T05:21:46.604Z,90.90
2018-05-08T05:24:12.627Z,90.60
2018-05-08T05:26:38.639Z,90.50
2018-05-08T05:29:04.678Z,90.50
2018-05-08T05:31:30.697Z,90.40
2018-05-08T05:33:57.312Z,90.20
2018-05-08T05:36:23.806Z,89.40
2018-05-08T05:38:49.906Z,88.80
2018-05-08T05:41:15.939Z,86.60
2018-05-08T05:43:41.951Z,86.70
2018-05-08T05:46:10.164Z,86.90
2018-05-08T05:48:36.244Z,86.70
2018-05-08T05:51:02.244Z,86.70
2018-05-08T05:53:28.299Z,85.60
2018-05-08T05:55:54.429Z,84.30
2018-05-08T05:58:20.423Z,82.40
2018-05-08T06:00:46.549Z,81.30
2018-05-08T06:03:12.576Z,80.90
2018-05-08T06:05:39.631Z,80.10
2018-05-08T06:08:05.842Z,78.80
2018-05-08T06:10:32.098Z,77.30
2018-05-08T06:12:58.201Z,77.00
2018-05-08T06:15:24.771Z,76.90
2018-05-08T06:17:50.811Z,75.90
2018-05-08T06:20:16.838Z,75.70
2018-05-08T06:22:42.806Z,75.50
2018-05-08T06:25:08.887Z,76.50
2018-05-08T06:27:34.907Z,75.10
2018-05-08T06:30:00.914Z,74.50
2018-05-08T06:32:27.031Z,73.70
2018-05-08T06:34:53.043Z,73.00
2018-05-08T06:37:19.080Z,74.00
2018-05-08T06:39:45.293Z,73.10
2018-05-08T06:42:11.251Z,72.20
2018-05-08T06:44:37.256Z,74.30
2018-05-08T06:47:03.259Z,72.20
2018-05-08T06:49:29.263Z,72.00
2018-05-08T06:51:55.317Z,71.50
2018-05-08T06:54:21.298Z,70.00
2018-05-08T06:56:47.555Z,69.20
2018-05-08T06:59:13.598Z,69.40
2018-05-08T07:01:39.624Z,68.20
2018-05-08T07:04:05.759Z,67.30
2018-05-08T07:06:31.957Z,67.40
2018-05-08T07:08:57.956Z,67.10
2018-05-08T07:11:23.992Z,67.60
2018-05-08T07:13:50.000Z,67.40
2018-05-08T07:16:16.112Z,67.50
2018-05-08T07:18:42.004Z,68.10
2018-05-08T07:21:08.055Z,68.30
2018-05-08T07:23:34.094Z,68.20
2018-05-08T07:26:00.072Z,69.80
2018-05-08T07:28:26.087Z,70.80
2018-05-08T07:30:52.155Z,71.30
2018-05-08T07:33:18.454Z,71.10
2018-05-08T07:35:44.388Z,72.10
2018-05-08T07:38:10.550Z,70.80
2018-05-08T07:40:37.270Z,67.80
2018-05-08T07:43:03.283Z,64.10
2018-05-08T07:45:29.405Z,65.70
2018-05-08T07:47:55.421Z,66.30
2018-05-08T07:50:21.542Z,67.90
2018-05-08T07:52:47.747Z,67.30
2018-05-08T07:55:13.897Z,64.30
2018-05-08T07:57:39.875Z,62.80
2018-05-08T08:00:05.932Z,62.00
2018-05-08T08:02:32.244Z,62.10
2018-05-08T08:04:58.425Z,62.70
2018-05-08T08:07:24.485Z,62.00
2018-05-08T08:09:50.464Z,61.40
2018-05-08T08:12:16.547Z,60.60
2018-05-08T08:14:42.508Z,59.90
2018-05-08T08:17:08.535Z,60.20
2018-05-08T08:19:34.476Z,59.60
2018-05-08T08:22:00.536Z,59.50
2018-05-08T08:24:26.624Z,58.40
2018-05-08T08:26:52.714Z,58.50
2018-05-08T08:29:18.978Z,57.60
2018-05-08T08:31:45.036Z,57.50
2018-05-08T08:34:11.020Z,57.90
2018-05-08T08:36:37.135Z,58.30
2018-05-08T08:39:03.089Z,58.00
2018-05-08T08:41:29.745Z,57.60
2018-05-08T08:43:55.696Z,57.40
2018-05-08T08:46:21.726Z,57.20
2018-05-08T08:48:47.807Z,57.20
2018-05-08T08:51:14.142Z,57.20
2018-05-08T08:53:40.326Z,56.50
2018-05-08T08:56:06.311Z,56.10
2018-05-08T08:58:32.297Z,56.20
2018-05-08T09:00:58.287Z,55.60
2018-05-08T09:03:24.307Z,55.30
2018-05-08T09:05:50.333Z,55.50
2018-05-08T09:08:16.357Z,54.60
2018-05-08T09:10:42.378Z,54.60
2018-05-08T09:13:09.353Z,54.70
2018-05-08T09:15:35.423Z,54.70
2018-05-08T09:18:02.998Z,54.60
2018-05-08T09:20:29.315Z,54.10
2018-05-08T09:22:55.336Z,54.30
2018-05-08T09:25:21.392Z,54.50
2018-05-08T09:27:47.453Z,54.20
2018-05-08T09:30:13.530Z,52.80
2018-05-08T09:32:39.630Z,52.60
2018-05-08T09:35:05.588Z,52.70
2018-05-08T09:37:31.700Z,52.40
2018-05-08T09:39:57.772Z,51.50
2018-05-08T09:42:23.789Z,51.00
2018-05-08T09:44:49.779Z,51.50
2018-05-08T09:47:15.821Z,51.10
2018-05-08T09:49:41.832Z,50.40
2018-05-08T09:52:08.558Z,50.00
2018-05-08T09:54:34.575Z,49.90
2018-05-08T09:57:00.625Z,50.30
2018-05-08T09:59:26.596Z,50.10
2018-05-08T10:01:52.647Z,49.20
2018-05-08T10:04:18.656Z,48.50
2018-05-08T10:06:44.739Z,48.50
2018-05-08T10:09:10.667Z,48.50
2018-05-08T10:11:37.516Z,48.50
2018-05-08T10:14:03.479Z,48.90
2018-05-08T10:16:29.469Z,48.80
2018-05-08T10:18:55.550Z,48.20
2018-05-08T10:21:21.687Z,47.00
2018-05-08T10:23:47.694Z,47.00
2018-05-08T10:26:13.821Z,46.70
2018-05-08T10:28:40.669Z,46.20
2018-05-08T10:31:06.738Z,46.20
2018-05-08T10:33:32.849Z,46.20
2018-05-08T10:35:58.925Z,46.00
2018-05-08T10:38:24.899Z,46.00
2018-05-08T10:40:50.956Z,46.10
2018-05-08T10:43:17.192Z,44.70
2018-05-08T10:45:43.796Z,45.30
2018-05-08T10:48:12.387Z,44.20
2018-05-08T10:50:39.369Z,42.90
2018-05-08T10:53:05.453Z,43.10
2018-05-08T10:55:31.522Z,43.20
2018-05-08T10:57:57.568Z,43.60
2018-05-08T11:00:23.694Z,43.20
2018-05-08T11:02:50.522Z,43.00
2018-05-08T11:05:16.665Z,42.60
2018-05-08T11:07:42.719Z,42.80
2018-05-08T11:10:09.841Z,41.60
2018-05-08T11:12:35.960Z,40.80
2018-05-08T11:15:02.172Z,41.80
2018-05-08T11:17:29.439Z,41.80
2018-05-08T11:19:55.587Z,41.40
2018-05-08T11:22:22.526Z,41.60
2018-05-08T11:24:48.755Z,41.90
2018-05-08T11:27:16.820Z,41.30
2018-05-08T11:29:43.456Z,40.10
2018-05-08T11:32:10.902Z,40.10
2018-05-08T11:34:36.922Z,40.40
2018-05-08T11:37:03.014Z,40.30
2018-05-08T11:39:29.253Z,38.80
2018-05-08T11:41:55.207Z,37.90
2018-05-08T11:44:21.216Z,38.00
2018-05-08T11:46:47.309Z,38.00
2018-05-08T11:49:13.335Z,38.00
2018-05-08T11:51:40.870Z,37.20
2018-05-08T11:54:06.947Z,37.00
2018-05-08T11:56:32.991Z,36.70
2018-05-08T11:58:59.069Z,36.40
2018-05-08T12:01:25.042Z,36.40
2018-05-08T12:03:51.477Z,36.50
2018-05-08T12:06:17.466Z,37.00
2018-05-08T12:08:43.569Z,36.60
2018-05-08T12:11:09.638Z,36.40
2018-05-08T12:13:35.683Z,36.40
2018-05-08T12:16:01.670Z,35.20
2018-05-08T12:18:27.747Z,35.30
2018-05-08T12:20:53.961Z,35.20
2018-05-08T12:23:20.109Z,35.40
2018-05-08T12:25:46.199Z,35.80
2018-05-08T12:28:12.252Z,35.60
2018-05-08T12:30:38.308Z,35.30
2018-05-08T12:33:04.375Z,34.10
2018-05-08T12:35:30.759Z,33.50
2018-05-08T12:37:56.815Z,33.30
2018-05-08T12:40:22.785Z,33.90
2018-05-08T12:42:48.817Z,33.90
2018-05-08T12:45:14.955Z,32.80
2018-05-08T12:47:41.323Z,32.60
2018-05-08T12:50:07.758Z,32.20
2018-05-08T12:55:21.260Z,31.80
2018-05-08T12:57:47.390Z,31.50
2018-05-08T13:00:13.472Z,31.50
2018-05-08T13:02:40.194Z,31.80
2018-05-08T13:05:06.166Z,31.70
2018-05-08T13:07:32.801Z,32.20
2018-05-08T13:10:27.154Z,32.40
2018-05-08T13:12:56.809Z,32.60
2018-05-08T13:15:22.964Z,32.60
2018-05-08T13:17:49.069Z,32.90
2018-05-08T13:20:15.171Z,32.60
2018-05-08T13:22:41.161Z,32.60
2018-05-08T13:25:07.190Z,32.80
2018-05-08T13:27:33.236Z,32.90
2018-05-08T13:29:59.218Z,32.20
2018-05-08T13:32:26.766Z,32.30
2018-05-08T13:34:52.789Z,32.10
2018-05-08T13:37:18.793Z,31.40
2018-05-08T13:39:48.969Z,31.80
2018-05-08T13:42:14.989Z,31.20
2018-05-08T13:44:55.843Z,31.30
2018-05-08T13:47:22.463Z,30.40
2018-05-08T13:49:59.870Z,30.60
2018-05-08T13:52:26.062Z,30.50
2018-05-08T13:54:52.030Z,30.40
2018-05-08T13:57:19.945Z,30.30
2018-05-08T13:59:46.208Z,30.40
2018-05-08T14:02:12.239Z,30.50
2018-05-08T14:04:38.253Z,30.90
2018-05-08T14:07:04.244Z,30.20
2018-05-08T14:09:30.284Z,30.40
2018-05-08T14:11:56.324Z,30.40
2018-05-08T14:14:23.481Z,30.90
2018-05-08T14:16:49.554Z,30.80
2018-05-08T14:19:15.654Z,30.90
2018-05-08T14:21:41.623Z,30.50
2018-05-08T14:24:07.738Z,30.80
2018-05-08T14:26:33.817Z,30.80
2018-05-08T14:28:59.833Z,30.20
2018-05-08T14:31:25.886Z,30.20
2018-05-08T14:33:52.239Z,30.10
2018-05-08T14:36:18.284Z,30.50
2018-05-08T14:38:44.274Z,30.30
2018-05-08T14:41:10.343Z,30.00
2018-05-08T14:43:36.531Z,29.90
2018-05-08T14:46:02.724Z,30.30
2018-05-08T14:48:28.809Z,29.60
2018-05-08T14:50:54.876Z,29.20
2018-05-08T14:53:21.014Z,29.40
2018-05-08T14:55:47.334Z,29.50
2018-05-08T14:58:14.003Z,29.50
2018-05-08T15:00:40.260Z,29.50
2018-05-08T15:03:06.670Z,29.60
2018-05-08T15:05:32.968Z,29.50
2018-05-08T15:07:59.350Z,29.40
2018-05-08T15:10:25.543Z,29.10
2018-05-08T15:12:51.653Z,29.10
2018-05-08T15:15:17.808Z,28.90
2018-05-08T15:17:44.651Z,28.90
2018-05-08T15:20:10.657Z,29.00
2018-05-08T15:22:37.560Z,29.20
2018-05-08T15:25:03.665Z,29.10
2018-05-08T15:27:29.908Z,29.20
2018-05-08T15:29:56.305Z,28.90
2018-05-08T15:32:22.825Z,28.50
2018-05-08T15:34:48.943Z,28.20
2018-05-08T15:37:15.708Z,28.10
2018-05-08T15:39:42.116Z,28.20
2018-05-08T15:42:08.934Z,28.30
2018-05-08T15:44:35.038Z,27.70
2018-05-08T15:47:01.122Z,28.10
2018-05-08T15:49:27.361Z,27.90
2018-05-08T15:51:53.499Z,28.00
2018-05-08T15:54:19.708Z,27.70
2018-05-08T15:56:46.709Z,27.90
2018-05-08T15:59:12.839Z,28.10
2018-05-08T16:01:38.951Z,27.70
2018-05-08T16:04:05.020Z,27.50
2018-05-08T16:06:31.301Z,27.50
2018-05-08T16:08:59.137Z,27.50
2018-05-08T16:11:25.296Z,27.70
2018-05-08T16:13:51.349Z,27.70
2018-05-08T16:16:17.455Z,27.70
2018-05-08T16:18:43.591Z,27.20
2018-05-08T16:21:09.670Z,27.20
2018-05-08T16:23:36.303Z,27.30
2018-05-08T16:26:02.294Z,27.30
2018-05-08T16:28:28.890Z,27.20
2018-05-08T16:30:54.970Z,27.00
2018-05-08T16:33:20.962Z,27.00
2018-05-08T16:35:46.986Z,27.10
2018-05-08T16:38:13.504Z,26.80
2018-05-08T16:40:39.542Z,27.40
2018-05-08T16:43:05.527Z,26.90
2018-05-08T16:45:31.638Z,26.70
2018-05-08T16:47:58.368Z,26.80
2018-05-08T16:50:24.339Z,27.20
2018-05-08T16:52:50.459Z,27.40
2018-05-08T16:55:16.507Z,27.50
2018-05-08T16:57:42.652Z,27.40
2018-05-08T17:00:08.794Z,27.30
2018-05-08T17:02:34.863Z,27.40
2018-05-08T17:05:00.900Z,27.50
2018-05-08T17:07:26.974Z,27.50
2018-05-08T17:09:52.943Z,27.70
2018-05-08T17:12:18.929Z,28.00
2018-05-08T17:14:45.037Z,28.10
2018-05-08T17:17:11.127Z,28.40
2018-05-08T17:19:37.197Z,28.70
2018-05-08T17:22:03.969Z,28.80
2018-05-08T17:24:30.217Z,28.60
2018-05-08T17:26:56.275Z,28.60
2018-05-08T17:29:22.348Z,28.50
2018-05-08T17:31:48.397Z,28.70
2018-05-08T17:34:14.419Z,28.90
2018-05-08T17:36:40.434Z,28.90
2018-05-08T17:39:06.560Z,29.10
2018-05-08T17:41:32.719Z,29.20
2018-05-08T17:43:59.580Z,29.40
2018-05-08T17:46:25.583Z,29.50
2018-05-08T17:48:51.705Z,29.50
2018-05-08T17:51:17.740Z,29.60
2018-05-08T17:53:43.718Z,29.50
2018-05-08T17:56:10.975Z,29.40
2018-05-08T17:58:36.969Z,29.40
2018-05-08T18:01:02.998Z,29.80
2018-05-08T18:03:29.003Z,29.90
2018-05-08T18:05:55.071Z,29.90
2018-05-08T18:08:21.109Z,29.90
2018-05-08T18:10:47.200Z,30.00
2018-05-08T18:13:13.268Z,30.00
2018-05-08T18:15:40.368Z,29.80
2018-05-08T18:18:06.332Z,29.70
2018-05-08T18:20:32.578Z,29.60
2018-05-08T18:23:01.572Z,29.40
2018-05-08T18:25:27.573Z,29.30
2018-05-08T18:27:53.881Z,29.90
2018-05-08T18:30:19.957Z,30.40
2018-05-08T18:32:46.045Z,31.10
2018-05-08T18:35:12.003Z,32.00
2018-05-08T18:37:38.145Z,32.80
2018-05-08T18:40:04.319Z,33.70
2018-05-08T18:42:31.038Z,34.30
2018-05-08T18:44:57.090Z,34.90
2018-05-08T18:47:23.138Z,35.70
2018-05-08T18:49:49.316Z,36.30
2018-05-08T18:52:15.358Z,36.90
2018-05-08T18:54:43.475Z,37.40
2018-05-08T18:57:09.563Z,38.10
2018-05-08T18:59:35.668Z,38.60
2018-05-08T19:02:08.671Z,39.00
2018-05-08T19:04:35.098Z,39.40
2018-05-08T19:07:01.273Z,39.80
2018-05-08T19:09:27.506Z,40.40
2018-05-08T19:11:53.491Z,40.30
2018-05-08T19:14:19.609Z,40.70
2018-05-08T19:16:45.713Z,41.00
2018-05-08T19:19:17.788Z,41.20
2018-05-08T19:21:44.021Z,41.40
2018-05-08T19:24:17.729Z,41.60
2018-05-08T19:26:43.908Z,41.80
2018-05-08T19:29:16.443Z,42.00
2018-05-08T19:31:49.456Z,42.20
2018-05-08T19:34:15.556Z,42.30
2018-05-08T19:36:47.820Z,42.20
2018-05-08T19:39:13.883Z,42.50
2018-05-08T19:41:39.889Z,42.60
2018-05-08T19:44:05.995Z,42.50
2018-05-08T19:46:32.827Z,42.90
2018-05-08T19:48:59.496Z,43.00
2018-05-08T19:51:25.667Z,43.20
2018-05-08T19:53:51.851Z,43.60
2018-05-08T19:56:21.328Z,43.80
2018-05-08T19:58:49.819Z,44.00
2018-05-08T20:01:15.900Z,44.10
2018-05-08T20:03:42.012Z,44.40
2018-05-08T20:06:11.030Z,44.20
2018-05-08T20:08:40.734Z,44.50
2018-05-08T20:11:11.012Z,44.70
2018-05-08T20:13:37.335Z,45.20
2018-05-08T20:16:03.729Z,45.30
2018-05-08T20:18:34.175Z,45.50
2018-05-08T20:21:00.981Z,45.70
2018-05-08T20:23:26.979Z,46.20
2018-05-08T20:25:59.325Z,46.30
2018-05-08T20:28:25.440Z,46.60
2018-05-08T20:30:51.467Z,46.80
2018-05-08T20:33:17.499Z,47.10
2018-05-08T20:35:43.918Z,47.10
2018-05-08T20:38:10.559Z,47.20
2018-05-08T20:40:36.665Z,47.40
2018-05-08T20:43:02.822Z,47.30
2018-05-08T20:45:29.257Z,47.60
2018-05-08T20:47:57.593Z,47.80
2018-05-08T20:50:23.708Z,47.80
2018-05-08T20:52:51.409Z,48.10
2018-05-08T20:55:17.951Z,48.40
2018-05-08T20:57:44.177Z,48.60
2018-05-08T21:00:10.216Z,48.60
2018-05-08T21:02:39.123Z,49.00
2018-05-08T21:05:05.112Z,49.20
2018-05-08T21:07:31.238Z,49.50
2018-05-08T21:09:57.294Z,49.70
2018-05-08T21:12:23.339Z,49.80
2018-05-08T21:14:49.445Z,49.70
2018-05-08T21:17:15.479Z,49.90
2018-05-08T21:19:41.656Z,50.70
2018-05-08T21:22:07.675Z,50.00
2018-05-08T21:24:33.713Z,50.00
2018-05-08T21:26:59.822Z,49.80
2018-05-08T21:29:32.095Z,49.80
2018-05-08T21:31:58.172Z,49.90
2018-05-08T21:34:25.504Z,50.00
2018-05-08T21:36:52.582Z,50.10
2018-05-08T21:39:19.809Z,50.50
2018-05-08T21:41:46.350Z,51.20
2018-05-08T21:44:12.659Z,51.60
2018-05-08T21:46:39.097Z,51.90
2018-05-08T21:49:06.890Z,51.90
2018-05-08T21:51:32.986Z,51.70
2018-05-08T21:53:59.017Z,51.70
2018-05-08T21:56:25.947Z,51.70
2018-05-08T21:58:52.158Z,51.70
2018-05-08T22:01:18.183Z,51.60
2018-05-08T22:03:44.431Z,51.70
2018-05-08T22:06:11.051Z,52.20
2018-05-08T22:08:38.133Z,53.10
2018-05-08T22:11:04.150Z,52.80
2018-05-08T22:13:30.376Z,52.80
2018-05-08T22:15:56.346Z,52.90
2018-05-08T22:18:22.448Z,52.70
2018-05-08T22:20:48.529Z,52.50
2018-05-08T22:37:27.368Z,53.50
2018-05-08T22:39:53.396Z,53.80
2018-05-08T22:42:19.547Z,53.90
2018-05-08T22:44:45.576Z,53.90
2018-05-08T22:47:11.611Z,54.00
2018-05-08T22:49:38.502Z,54.10
2018-05-08T22:52:04.673Z,54.40
2018-05-08T22:54:30.629Z,54.70
2018-05-08T22:56:56.732Z,54.90
2018-05-08T22:59:22.765Z,55.10
2018-05-08T23:01:48.861Z,55.20
2018-05-08T23:04:14.895Z,55.30
2018-05-08T23:06:40.971Z,55.30
2018-05-08T23:09:06.963Z,55.60
2018-05-08T23:11:32.944Z,56.00
2018-05-08T23:13:58.997Z,56.00
2018-05-08T23:16:25.003Z,56.00
2018-05-08T23:18:50.933Z,56.20
2018-05-08T23:21:16.922Z,56.40
2018-05-08T23:23:42.969Z,56.30
2018-05-08T23:26:08.976Z,56.30
2018-05-08T23:28:34.993Z,56.60
2018-05-08T23:31:01.010Z,56.50
2018-05-08T23:33:27.046Z,56.70
2018-05-08T23:35:53.087Z,57.10
2018-05-08T23:38:20.153Z,57.20
2018-05-08T23:40:46.108Z,57.50
2018-05-08T23:43:12.095Z,57.60
2018-05-08T23:45:38.098Z,57.70
2018-05-08T23:48:04.097Z,57.80
2018-05-08T23:50:30.108Z,58.60
2018-05-08T23:52:58.666Z,58.60
2018-05-08T23:55:24.793Z,59.00
2018-05-08T23:57:50.848Z,59.40
